sensor_id;sensor_type;location;lat;lon;timestamp;pressure;altitude;pressure_sealevel;temperature;humidity
50867;BME280;36839;51.946;21.002;2023-02-17T00:01:33;100425.38;;;0.64;100.00
50867;BME280;36839;51.946;21.002;2023-02-17T00:04:00;100426.55;;;0.63;100.00
50867;BME280;36839;51.946;21.002;2023-02-17T00:06:29;100426.22;;;0.64;100.00
50867;BME280;36839;51.946;21.002;2023-02-17T00:08:58;100430.75;;;0.66;100.00
50867;BME280;36839;51.946;21.002;2023-02-17T00:11:26;100427.51;;;0.67;100.00
50867;BME280;36839;51.946;21.002;2023-02-17T00:13:57;100429.56;;;0.69;100.00
50867;BME280;36839;51.946;21.002;2023-02-17T00:16:26;100425.80;;;0.70;100.00
50867;BME280;36839;51.946;21.002;2023-02-17T00:18:56;100422.17;;;0.70;100.00
50867;BME280;36839;51.946;21.002;2023-02-17T00:21:26;100424.00;;;0.71;100.00
50867;BME280;36839;51.946;21.002;2023-02-17T00:23:53;100414.67;;;0.71;100.00
50867;BME280;36839;51.946;21.002;2023-02-17T00:26:22;100418.27;;;0.69;100.00
50867;BME280;36839;51.946;21.002;2023-02-17T00:28:49;100418.48;;;0.68;100.00
50867;BME280;36839;51.946;21.002;2023-02-17T00:31:19;100422.84;;;0.68;100.00
50867;BME280;36839;51.946;21.002;2023-02-17T00:33:52;100419.04;;;0.71;100.00
50867;BME280;36839;51.946;21.002;2023-02-17T00:36:19;100411.76;;;0.72;100.00
50867;BME280;36839;51.946;21.002;2023-02-17T00:38:48;100405.32;;;0.74;100.00
50867;BME280;36839;51.946;21.002;2023-02-17T00:41:16;100403.27;;;0.76;100.00
50867;BME280;36839;51.946;21.002;2023-02-17T00:43:44;100397.66;;;0.79;100.00
50867;BME280;36839;51.946;21.002;2023-02-17T00:46:12;100401.67;;;0.81;100.00
50867;BME280;36839;51.946;21.002;2023-02-17T00:48:40;100395.08;;;0.83;100.00
50867;BME280;36839;51.946;21.002;2023-02-17T00:51:07;100394.17;;;0.86;100.00
50867;BME280;36839;51.946;21.002;2023-02-17T00:53:34;100391.85;;;0.90;100.00
50867;BME280;36839;51.946;21.002;2023-02-17T00:56:03;100393.98;;;0.91;100.00
50867;BME280;36839;51.946;21.002;2023-02-17T00:58:30;100392.23;;;0.95;100.00
50867;BME280;36839;51.946;21.002;2023-02-17T01:00:58;100388.91;;;0.97;100.00
50867;BME280;36839;51.946;21.002;2023-02-17T01:03:25;100385.80;;;0.98;100.00
50867;BME280;36839;51.946;21.002;2023-02-17T01:05:54;100385.27;;;1.00;100.00
50867;BME280;36839;51.946;21.002;2023-02-17T01:08:24;100386.10;;;1.01;100.00
50867;BME280;36839;51.946;21.002;2023-02-17T01:10:51;100383.09;;;1.02;100.00
50867;BME280;36839;51.946;21.002;2023-02-17T01:13:19;100379.07;;;1.02;100.00
50867;BME280;36839;51.946;21.002;2023-02-17T01:15:50;100377.08;;;1.04;100.00
50867;BME280;36839;51.946;21.002;2023-02-17T01:18:24;100377.30;;;1.05;100.00
50867;BME280;36839;51.946;21.002;2023-02-17T01:20:52;100375.52;;;1.05;100.00
50867;BME280;36839;51.946;21.002;2023-02-17T01:23:22;100370.41;;;1.05;100.00
50867;BME280;36839;51.946;21.002;2023-02-17T01:25:52;100369.90;;;1.06;100.00
50867;BME280;36839;51.946;21.002;2023-02-17T01:28:20;100367.10;;;1.08;100.00
50867;BME280;36839;51.946;21.002;2023-02-17T01:30:49;100365.98;;;1.10;100.00
50867;BME280;36839;51.946;21.002;2023-02-17T01:33:18;100364.88;;;1.11;100.00
50867;BME280;36839;51.946;21.002;2023-02-17T01:35:48;100362.25;;;1.13;100.00
50867;BME280;36839;51.946;21.002;2023-02-17T01:38:15;100356.04;;;1.15;100.00
50867;BME280;36839;51.946;21.002;2023-02-17T01:40:47;100352.77;;;1.17;100.00
50867;BME280;36839;51.946;21.002;2023-02-17T01:43:16;100350.17;;;1.17;100.00
50867;BME280;36839;51.946;21.002;2023-02-17T01:45:53;100346.95;;;1.18;100.00
50867;BME280;36839;51.946;21.002;2023-02-17T01:48:42;100342.77;;;1.18;100.00
50867;BME280;36839;51.946;21.002;2023-02-17T01:51:21;100332.47;;;1.18;100.00
50867;BME280;36839;51.946;21.002;2023-02-17T01:56:23;100330.84;;;1.15;100.00
50867;BME280;36839;51.946;21.002;2023-02-17T01:59:09;100326.85;;;1.13;100.00
50867;BME280;36839;51.946;21.002;2023-02-17T02:01:39;100323.41;;;1.13;100.00
50867;BME280;36839;51.946;21.002;2023-02-17T02:04:07;100328.73;;;1.13;100.00
50867;BME280;36839;51.946;21.002;2023-02-17T02:06:39;100327.90;;;1.14;100.00
50867;BME280;36839;51.946;21.002;2023-02-17T02:09:23;100332.73;;;1.17;100.00
50867;BME280;36839;51.946;21.002;2023-02-17T02:11:54;100333.67;;;1.22;100.00
50867;BME280;36839;51.946;21.002;2023-02-17T02:14:21;100332.82;;;1.26;100.00
50867;BME280;36839;51.946;21.002;2023-02-17T02:20:06;100328.67;;;1.32;100.00
50867;BME280;36839;51.946;21.002;2023-02-17T02:28:58;100318.60;;;1.39;100.00
50867;BME280;36839;51.946;21.002;2023-02-17T02:31:43;100323.37;;;1.42;100.00
50867;BME280;36839;51.946;21.002;2023-02-17T02:34:22;100318.56;;;1.45;100.00
50867;BME280;36839;51.946;21.002;2023-02-17T02:37:34;100317.38;;;1.48;100.00
50867;BME280;36839;51.946;21.002;2023-02-17T02:39:53;100314.70;;;1.51;100.00
50867;BME280;36839;51.946;21.002;2023-02-17T02:42:22;100314.92;;;1.52;100.00
50867;BME280;36839;51.946;21.002;2023-02-17T02:44:50;100316.98;;;1.54;100.00
50867;BME280;36839;51.946;21.002;2023-02-17T02:47:50;100315.67;;;1.56;100.00
50867;BME280;36839;51.946;21.002;2023-02-17T03:05:04;100299.52;;;1.62;100.00
50867;BME280;36839;51.946;21.002;2023-02-17T03:07:32;100303.00;;;1.62;100.00
50867;BME280;36839;51.946;21.002;2023-02-17T03:10:01;100300.86;;;1.63;100.00
50867;BME280;36839;51.946;21.002;2023-02-17T03:12:29;100302.07;;;1.63;100.00
50867;BME280;36839;51.946;21.002;2023-02-17T03:15:13;100310.20;;;1.64;100.00
50867;BME280;36839;51.946;21.002;2023-02-17T03:17:41;100309.64;;;1.65;100.00
50867;BME280;36839;51.946;21.002;2023-02-17T03:20:09;100309.30;;;1.66;100.00
50867;BME280;36839;51.946;21.002;2023-02-17T03:22:44;100305.28;;;1.68;100.00
50867;BME280;36839;51.946;21.002;2023-02-17T03:25:11;100306.41;;;1.68;100.00
50867;BME280;36839;51.946;21.002;2023-02-17T03:27:38;100304.58;;;1.70;100.00
50867;BME280;36839;51.946;21.002;2023-02-17T03:30:06;100301.82;;;1.72;100.00
50867;BME280;36839;51.946;21.002;2023-02-17T03:32:33;100308.52;;;1.74;100.00
50867;BME280;36839;51.946;21.002;2023-02-17T03:35:00;100307.41;;;1.75;100.00
50867;BME280;36839;51.946;21.002;2023-02-17T03:37:27;100306.65;;;1.78;100.00
50867;BME280;36839;51.946;21.002;2023-02-17T03:39:54;100303.57;;;1.82;100.00
50867;BME280;36839;51.946;21.002;2023-02-17T03:42:21;100306.45;;;1.84;100.00
50867;BME280;36839;51.946;21.002;2023-02-17T03:44:48;100313.65;;;1.86;100.00
50867;BME280;36839;51.946;21.002;2023-02-17T03:47:15;100316.62;;;1.89;100.00
50867;BME280;36839;51.946;21.002;2023-02-17T03:49:42;100312.98;;;1.92;100.00
50867;BME280;36839;51.946;21.002;2023-02-17T03:52:09;100309.45;;;1.94;100.00
50867;BME280;36839;51.946;21.002;2023-02-17T03:54:36;100313.80;;;1.96;100.00
50867;BME280;36839;51.946;21.002;2023-02-17T03:57:03;100310.61;;;1.99;100.00
50867;BME280;36839;51.946;21.002;2023-02-17T03:59:30;100310.54;;;1.99;100.00
50867;BME280;36839;51.946;21.002;2023-02-17T04:01:57;100310.06;;;2.03;100.00
50867;BME280;36839;51.946;21.002;2023-02-17T04:04:24;100312.06;;;2.05;100.00
50867;BME280;36839;51.946;21.002;2023-02-17T04:06:51;100302.42;;;2.07;100.00
50867;BME280;36839;51.946;21.002;2023-02-17T04:09:18;100299.58;;;2.09;100.00
50867;BME280;36839;51.946;21.002;2023-02-17T04:11:45;100293.41;;;2.12;100.00
50867;BME280;36839;51.946;21.002;2023-02-17T04:14:11;100292.39;;;2.14;100.00
50867;BME280;36839;51.946;21.002;2023-02-17T04:16:39;100291.59;;;2.15;100.00
50867;BME280;36839;51.946;21.002;2023-02-17T04:19:06;100289.37;;;2.18;100.00
50867;BME280;36839;51.946;21.002;2023-02-17T04:21:35;100288.98;;;2.20;100.00
50867;BME280;36839;51.946;21.002;2023-02-17T04:24:03;100290.49;;;2.20;100.00
50867;BME280;36839;51.946;21.002;2023-02-17T04:26:30;100284.83;;;2.22;100.00
50867;BME280;36839;51.946;21.002;2023-02-17T04:28:57;100289.50;;;2.25;100.00
50867;BME280;36839;51.946;21.002;2023-02-17T04:31:24;100284.34;;;2.25;100.00
50867;BME280;36839;51.946;21.002;2023-02-17T04:33:53;100277.22;;;2.27;100.00
50867;BME280;36839;51.946;21.002;2023-02-17T04:36:21;100275.59;;;2.27;100.00
50867;BME280;36839;51.946;21.002;2023-02-17T04:38:49;100284.09;;;2.26;100.00
50867;BME280;36839;51.946;21.002;2023-02-17T04:41:16;100283.00;;;2.25;100.00
50867;BME280;36839;51.946;21.002;2023-02-17T04:43:43;100285.60;;;2.24;100.00
50867;BME280;36839;51.946;21.002;2023-02-17T04:46:11;100285.53;;;2.23;100.00
50867;BME280;36839;51.946;21.002;2023-02-17T04:48:38;100276.77;;;2.24;100.00
50867;BME280;36839;51.946;21.002;2023-02-17T04:51:05;100272.65;;;2.25;100.00
50867;BME280;36839;51.946;21.002;2023-02-17T04:53:32;100278.69;;;2.26;100.00
50867;BME280;36839;51.946;21.002;2023-02-17T04:56:00;100267.95;;;2.28;100.00
50867;BME280;36839;51.946;21.002;2023-02-17T04:58:27;100252.73;;;2.29;100.00
50867;BME280;36839;51.946;21.002;2023-02-17T05:00:57;100249.39;;;2.28;100.00
50867;BME280;36839;51.946;21.002;2023-02-17T05:03:24;100262.42;;;2.29;100.00
50867;BME280;36839;51.946;21.002;2023-02-17T05:05:51;100262.89;;;2.28;100.00
50867;BME280;36839;51.946;21.002;2023-02-17T05:08:18;100264.40;;;2.28;100.00
50867;BME280;36839;51.946;21.002;2023-02-17T05:10:46;100265.95;;;2.27;100.00
50867;BME280;36839;51.946;21.002;2023-02-17T05:13:13;100264.52;;;2.27;100.00
50867;BME280;36839;51.946;21.002;2023-02-17T05:15:42;100259.09;;;2.27;100.00
50867;BME280;36839;51.946;21.002;2023-02-17T05:18:09;100269.69;;;2.24;100.00
50867;BME280;36839;51.946;21.002;2023-02-17T05:20:36;100272.00;;;2.22;100.00
50867;BME280;36839;51.946;21.002;2023-02-17T05:23:03;100269.95;;;2.22;100.00
50867;BME280;36839;51.946;21.002;2023-02-17T05:25:30;100266.77;;;2.21;100.00
50867;BME280;36839;51.946;21.002;2023-02-17T05:27:57;100266.92;;;2.23;100.00
50867;BME280;36839;51.946;21.002;2023-02-17T05:30:24;100262.94;;;2.23;100.00
50867;BME280;36839;51.946;21.002;2023-02-17T05:32:51;100257.61;;;2.23;100.00
50867;BME280;36839;51.946;21.002;2023-02-17T05:35:20;100249.89;;;2.24;100.00
50867;BME280;36839;51.946;21.002;2023-02-17T05:37:47;100253.13;;;2.23;100.00
50867;BME280;36839;51.946;21.002;2023-02-17T05:40:14;100248.36;;;2.20;100.00
50867;BME280;36839;51.946;21.002;2023-02-17T05:42:41;100244.59;;;2.20;100.00
50867;BME280;36839;51.946;21.002;2023-02-17T05:45:08;100236.95;;;2.21;100.00
50867;BME280;36839;51.946;21.002;2023-02-17T05:47:35;100231.05;;;2.21;100.00
50867;BME280;36839;51.946;21.002;2023-02-17T05:50:03;100229.88;;;2.22;100.00
50867;BME280;36839;51.946;21.002;2023-02-17T05:52:32;100237.67;;;2.21;100.00
50867;BME280;36839;51.946;21.002;2023-02-17T05:54:59;100245.00;;;2.21;100.00
50867;BME280;36839;51.946;21.002;2023-02-17T05:57:26;100238.42;;;2.20;100.00
50867;BME280;36839;51.946;21.002;2023-02-17T05:59:53;100236.40;;;2.23;100.00
50867;BME280;36839;51.946;21.002;2023-02-17T06:02:20;100228.67;;;2.25;100.00
50867;BME280;36839;51.946;21.002;2023-02-17T06:04:50;100230.02;;;2.27;100.00
50867;BME280;36839;51.946;21.002;2023-02-17T06:07:17;100227.97;;;2.27;100.00
50867;BME280;36839;51.946;21.002;2023-02-17T06:09:44;100231.77;;;2.29;100.00
50867;BME280;36839;51.946;21.002;2023-02-17T06:12:11;100224.52;;;2.30;100.00
50867;BME280;36839;51.946;21.002;2023-02-17T06:14:39;100223.37;;;2.32;100.00
50867;BME280;36839;51.946;21.002;2023-02-17T06:17:07;100224.96;;;2.32;100.00
50867;BME280;36839;51.946;21.002;2023-02-17T06:19:33;100229.62;;;2.31;100.00
50867;BME280;36839;51.946;21.002;2023-02-17T06:22:00;100233.67;;;2.34;100.00
50867;BME280;36839;51.946;21.002;2023-02-17T06:24:27;100232.00;;;2.34;100.00
50867;BME280;36839;51.946;21.002;2023-02-17T06:26:54;100227.84;;;2.35;100.00
50867;BME280;36839;51.946;21.002;2023-02-17T06:29:21;100223.05;;;2.36;100.00
50867;BME280;36839;51.946;21.002;2023-02-17T06:31:48;100219.11;;;2.37;100.00
50867;BME280;36839;51.946;21.002;2023-02-17T06:34:15;100212.98;;;2.40;100.00
50867;BME280;36839;51.946;21.002;2023-02-17T06:36:43;100215.05;;;2.41;100.00
50867;BME280;36839;51.946;21.002;2023-02-17T06:39:10;100223.82;;;2.42;100.00
50867;BME280;36839;51.946;21.002;2023-02-17T06:41:38;100226.56;;;2.45;100.00
50867;BME280;36839;51.946;21.002;2023-02-17T06:44:05;100226.27;;;2.47;100.00
50867;BME280;36839;51.946;21.002;2023-02-17T06:46:33;100222.23;;;2.51;100.00
50867;BME280;36839;51.946;21.002;2023-02-17T06:49:00;100226.94;;;2.53;100.00
50867;BME280;36839;51.946;21.002;2023-02-17T06:51:27;100225.80;;;2.56;100.00
50867;BME280;36839;51.946;21.002;2023-02-17T06:53:55;100222.51;;;2.61;100.00
50867;BME280;36839;51.946;21.002;2023-02-17T06:56:21;100225.01;;;2.63;100.00
50867;BME280;36839;51.946;21.002;2023-02-17T06:58:50;100216.36;;;2.66;100.00
50867;BME280;36839;51.946;21.002;2023-02-17T07:01:21;100209.13;;;2.69;100.00
50867;BME280;36839;51.946;21.002;2023-02-17T07:03:48;100206.66;;;2.72;100.00
50867;BME280;36839;51.946;21.002;2023-02-17T07:06:16;100200.94;;;2.76;100.00
50867;BME280;36839;51.946;21.002;2023-02-17T07:08:43;100208.05;;;2.79;100.00
50867;BME280;36839;51.946;21.002;2023-02-17T07:11:12;100210.66;;;2.82;100.00
50867;BME280;36839;51.946;21.002;2023-02-17T07:13:41;100210.45;;;2.86;100.00
50867;BME280;36839;51.946;21.002;2023-02-17T07:16:10;100208.54;;;2.88;100.00
50867;BME280;36839;51.946;21.002;2023-02-17T07:18:39;100203.80;;;2.94;100.00
50867;BME280;36839;51.946;21.002;2023-02-17T07:21:08;100194.95;;;2.98;100.00
50867;BME280;36839;51.946;21.002;2023-02-17T07:23:36;100194.73;;;3.02;100.00
50867;BME280;36839;51.946;21.002;2023-02-17T07:26:09;100197.92;;;3.05;100.00
50867;BME280;36839;51.946;21.002;2023-02-17T07:28:39;100191.25;;;3.13;100.00
50867;BME280;36839;51.946;21.002;2023-02-17T07:31:15;100192.61;;;3.23;100.00
50867;BME280;36839;51.946;21.002;2023-02-17T07:33:43;100190.31;;;3.31;100.00
50867;BME280;36839;51.946;21.002;2023-02-17T07:36:16;100185.23;;;3.39;100.00
50867;BME280;36839;51.946;21.002;2023-02-17T07:38:43;100185.21;;;3.47;100.00
50867;BME280;36839;51.946;21.002;2023-02-17T07:41:18;100188.98;;;3.52;100.00
50867;BME280;36839;51.946;21.002;2023-02-17T07:43:53;100189.64;;;3.56;100.00
50867;BME280;36839;51.946;21.002;2023-02-17T07:46:22;100188.83;;;3.63;100.00
50867;BME280;36839;51.946;21.002;2023-02-17T07:48:49;100178.23;;;3.74;100.00
50867;BME280;36839;51.946;21.002;2023-02-17T07:51:26;100178.23;;;3.83;100.00
50867;BME280;36839;51.946;21.002;2023-02-17T07:53:53;100173.80;;;3.92;100.00
50867;BME280;36839;51.946;21.002;2023-02-17T07:56:21;100169.74;;;3.98;100.00
50867;BME280;36839;51.946;21.002;2023-02-17T07:58:58;100167.31;;;4.10;100.00
50867;BME280;36839;51.946;21.002;2023-02-17T08:01:30;100171.89;;;4.18;100.00
50867;BME280;36839;51.946;21.002;2023-02-17T08:03:57;100168.77;;;4.24;100.00
50867;BME280;36839;51.946;21.002;2023-02-17T08:06:25;100169.78;;;4.31;100.00
50867;BME280;36839;51.946;21.002;2023-02-17T08:08:53;100169.63;;;4.39;100.00
50867;BME280;36839;51.946;21.002;2023-02-17T08:11:39;100169.92;;;4.48;100.00
50867;BME280;36839;51.946;21.002;2023-02-17T08:14:29;100163.52;;;4.52;100.00
50867;BME280;36839;51.946;21.002;2023-02-17T08:16:58;100155.01;;;4.56;100.00
50867;BME280;36839;51.946;21.002;2023-02-17T08:19:30;100156.21;;;4.63;100.00
50867;BME280;36839;51.946;21.002;2023-02-17T08:22:02;100157.83;;;4.65;100.00
50867;BME280;36839;51.946;21.002;2023-02-17T08:24:36;100160.80;;;4.66;100.00
50867;BME280;36839;51.946;21.002;2023-02-17T08:27:03;100161.56;;;4.71;100.00
50867;BME280;36839;51.946;21.002;2023-02-17T08:29:33;100160.33;;;4.74;100.00
50867;BME280;36839;51.946;21.002;2023-02-17T08:32:05;100158.54;;;4.79;100.00
50867;BME280;36839;51.946;21.002;2023-02-17T08:34:56;100158.55;;;4.79;100.00
50867;BME280;36839;51.946;21.002;2023-02-17T08:37:23;100155.11;;;4.85;100.00
50867;BME280;36839;51.946;21.002;2023-02-17T08:39:50;100148.18;;;4.89;100.00
50867;BME280;36839;51.946;21.002;2023-02-17T08:42:19;100145.21;;;4.93;100.00
50867;BME280;36839;51.946;21.002;2023-02-17T08:44:46;100146.23;;;4.96;100.00
50867;BME280;36839;51.946;21.002;2023-02-17T08:47:13;100143.30;;;4.99;100.00
50867;BME280;36839;51.946;21.002;2023-02-17T08:49:41;100135.81;;;5.04;100.00
50867;BME280;36839;51.946;21.002;2023-02-17T08:52:11;100137.00;;;5.05;100.00
50867;BME280;36839;51.946;21.002;2023-02-17T08:54:39;100144.91;;;5.09;100.00
50867;BME280;36839;51.946;21.002;2023-02-17T08:57:08;100146.01;;;5.09;100.00
50867;BME280;36839;51.946;21.002;2023-02-17T08:59:35;100140.80;;;5.11;100.00
50867;BME280;36839;51.946;21.002;2023-02-17T09:02:03;100143.51;;;5.09;100.00
50867;BME280;36839;51.946;21.002;2023-02-17T09:04:31;100141.65;;;5.12;100.00
50867;BME280;36839;51.946;21.002;2023-02-17T09:06:58;100143.92;;;5.10;100.00
50867;BME280;36839;51.946;21.002;2023-02-17T09:09:31;100139.05;;;5.04;100.00
50867;BME280;36839;51.946;21.002;2023-02-17T09:12:04;100141.20;;;5.01;100.00
50867;BME280;36839;51.946;21.002;2023-02-17T09:14:32;100137.44;;;4.99;100.00
50867;BME280;36839;51.946;21.002;2023-02-17T09:16:59;100143.66;;;4.96;100.00
50867;BME280;36839;51.946;21.002;2023-02-17T09:19:27;100137.35;;;4.95;100.00
50867;BME280;36839;51.946;21.002;2023-02-17T09:21:54;100139.40;;;4.94;100.00
50867;BME280;36839;51.946;21.002;2023-02-17T09:24:23;100132.45;;;4.96;100.00
50867;BME280;36839;51.946;21.002;2023-02-17T09:26:50;100136.77;;;4.96;100.00
50867;BME280;36839;51.946;21.002;2023-02-17T09:29:17;100130.45;;;5.00;100.00
50867;BME280;36839;51.946;21.002;2023-02-17T09:31:45;100128.98;;;5.04;100.00
50867;BME280;36839;51.946;21.002;2023-02-17T09:34:13;100122.94;;;5.10;100.00
50867;BME280;36839;51.946;21.002;2023-02-17T09:36:40;100120.33;;;5.16;100.00
50867;BME280;36839;51.946;21.002;2023-02-17T09:39:10;100121.25;;;5.25;100.00
50867;BME280;36839;51.946;21.002;2023-02-17T09:41:52;100116.14;;;5.35;100.00
50867;BME280;36839;51.946;21.002;2023-02-17T09:44:44;100111.72;;;5.46;100.00
50867;BME280;36839;51.946;21.002;2023-02-17T09:47:41;100108.84;;;5.54;100.00
50867;BME280;36839;51.946;21.002;2023-02-17T09:50:43;100108.29;;;5.59;100.00
50867;BME280;36839;51.946;21.002;2023-02-17T09:53:21;100095.92;;;5.60;100.00
50867;BME280;36839;51.946;21.002;2023-02-17T09:55:58;100095.05;;;5.63;100.00
50867;BME280;36839;51.946;21.002;2023-02-17T09:58:39;100088.41;;;5.62;100.00
50867;BME280;36839;51.946;21.002;2023-02-17T10:01:21;100089.52;;;5.62;100.00
50867;BME280;36839;51.946;21.002;2023-02-17T10:04:07;100086.85;;;5.61;100.00
50867;BME280;36839;51.946;21.002;2023-02-17T10:06:58;100083.48;;;5.58;100.00
50867;BME280;36839;51.946;21.002;2023-02-17T10:09:46;100080.80;;;5.59;100.00
50867;BME280;36839;51.946;21.002;2023-02-17T10:12:26;100070.23;;;5.60;100.00
50867;BME280;36839;51.946;21.002;2023-02-17T10:15:24;100069.26;;;5.66;100.00
50867;BME280;36839;51.946;21.002;2023-02-17T10:18:03;100066.05;;;5.72;100.00
50867;BME280;36839;51.946;21.002;2023-02-17T10:20:38;100064.84;;;5.72;100.00
50867;BME280;36839;51.946;21.002;2023-02-17T10:23:17;100064.66;;;5.71;100.00
50867;BME280;36839;51.946;21.002;2023-02-17T10:28:45;100068.28;;;5.56;100.00
50867;BME280;36839;51.946;21.002;2023-02-17T10:36:59;100071.31;;;5.39;100.00
50867;BME280;36839;51.946;21.002;2023-02-17T10:39:46;100071.08;;;5.39;100.00
50867;BME280;36839;51.946;21.002;2023-02-17T10:42:33;100069.77;;;5.34;100.00
50867;BME280;36839;51.946;21.002;2023-02-17T10:45:05;100071.11;;;5.28;100.00
50867;BME280;36839;51.946;21.002;2023-02-17T10:47:36;100068.55;;;5.24;100.00
50867;BME280;36839;51.946;21.002;2023-02-17T10:50:15;100062.64;;;5.19;100.00
50867;BME280;36839;51.946;21.002;2023-02-17T10:52:50;100051.22;;;5.15;100.00
50867;BME280;36839;51.946;21.002;2023-02-17T10:55:40;100046.89;;;5.15;100.00
50867;BME280;36839;51.946;21.002;2023-02-17T10:58:23;100042.32;;;5.14;100.00
50867;BME280;36839;51.946;21.002;2023-02-17T11:00:52;100033.52;;;5.12;100.00
50867;BME280;36839;51.946;21.002;2023-02-17T11:03:24;100028.48;;;5.08;100.00
50867;BME280;36839;51.946;21.002;2023-02-17T11:05:55;100023.55;;;5.08;100.00
50867;BME280;36839;51.946;21.002;2023-02-17T11:08:51;100021.59;;;5.12;100.00
50867;BME280;36839;51.946;21.002;2023-02-17T11:11:24;100013.58;;;5.17;100.00
50867;BME280;36839;51.946;21.002;2023-02-17T11:14:20;100006.36;;;5.17;100.00
50867;BME280;36839;51.946;21.002;2023-02-17T11:16:56;99999.52;;;5.20;100.00
50867;BME280;36839;51.946;21.002;2023-02-17T11:19:34;99995.48;;;5.23;100.00
50867;BME280;36839;51.946;21.002;2023-02-17T11:22:25;99992.79;;;5.25;100.00
50867;BME280;36839;51.946;21.002;2023-02-17T11:27:55;99977.22;;;5.46;100.00
50867;BME280;36839;51.946;21.002;2023-02-17T11:30:24;99967.33;;;5.52;100.00
50867;BME280;36839;51.946;21.002;2023-02-17T11:33:14;99963.56;;;5.66;100.00
50867;BME280;36839;51.946;21.002;2023-02-17T11:35:49;99954.63;;;5.75;100.00
50867;BME280;36839;51.946;21.002;2023-02-17T11:38:40;99945.52;;;5.84;100.00
50867;BME280;36839;51.946;21.002;2023-02-17T11:41:18;99940.98;;;5.84;100.00
50867;BME280;36839;51.946;21.002;2023-02-17T11:43:54;99929.95;;;5.87;100.00
50867;BME280;36839;51.946;21.002;2023-02-17T11:58:36;99895.16;;;6.12;100.00
50867;BME280;36839;51.946;21.002;2023-02-17T12:01:26;99894.09;;;6.13;100.00
50867;BME280;36839;51.946;21.002;2023-02-17T12:06:50;99882.36;;;6.21;100.00
50867;BME280;36839;51.946;21.002;2023-02-17T12:15:38;99869.89;;;6.22;100.00
50867;BME280;36839;51.946;21.002;2023-02-17T12:18:13;99865.73;;;6.19;100.00
50867;BME280;36839;51.946;21.002;2023-02-17T12:20:55;99860.52;;;6.13;100.00
50867;BME280;36839;51.946;21.002;2023-02-17T12:23:48;99856.06;;;6.08;100.00
50867;BME280;36839;51.946;21.002;2023-02-17T12:29:34;99831.58;;;6.03;100.00
50867;BME280;36839;51.946;21.002;2023-02-17T12:37:24;99813.85;;;6.15;100.00
50867;BME280;36839;51.946;21.002;2023-02-17T12:39:56;99802.92;;;6.18;100.00
50867;BME280;36839;51.946;21.002;2023-02-17T12:42:31;99794.98;;;6.19;100.00
50867;BME280;36839;51.946;21.002;2023-02-17T12:45:06;99789.14;;;6.16;100.00
50867;BME280;36839;51.946;21.002;2023-02-17T12:47:38;99778.61;;;6.17;100.00
50867;BME280;36839;51.946;21.002;2023-02-17T12:50:20;99773.20;;;6.15;100.00
50867;BME280;36839;51.946;21.002;2023-02-17T12:52:53;99776.41;;;6.14;100.00
50867;BME280;36839;51.946;21.002;2023-02-17T12:55:36;99776.62;;;6.13;100.00
50867;BME280;36839;51.946;21.002;2023-02-17T12:58:11;99772.27;;;6.11;100.00
50867;BME280;36839;51.946;21.002;2023-02-17T13:00:49;99773.63;;;6.10;100.00
50867;BME280;36839;51.946;21.002;2023-02-17T13:03:23;99768.54;;;6.11;100.00
50867;BME280;36839;51.946;21.002;2023-02-17T13:09:13;99761.07;;;6.10;100.00
50867;BME280;36839;51.946;21.002;2023-02-17T13:11:43;99756.59;;;6.11;100.00
50867;BME280;36839;51.946;21.002;2023-02-17T13:14:24;99756.15;;;6.11;100.00
50867;BME280;36839;51.946;21.002;2023-02-17T13:16:52;99751.41;;;6.10;100.00
50867;BME280;36839;51.946;21.002;2023-02-17T13:19:29;99749.35;;;6.07;100.00
50867;BME280;36839;51.946;21.002;2023-02-17T13:21:58;99744.90;;;6.04;100.00
50867;BME280;36839;51.946;21.002;2023-02-17T13:30:00;99735.70;;;5.99;100.00
50867;BME280;36839;51.946;21.002;2023-02-17T13:32:34;99726.92;;;5.98;100.00
50867;BME280;36839;51.946;21.002;2023-02-17T13:35:27;99722.80;;;5.97;100.00
50867;BME280;36839;51.946;21.002;2023-02-17T13:37:54;99712.55;;;5.97;100.00
50867;BME280;36839;51.946;21.002;2023-02-17T13:40:34;99713.80;;;5.98;100.00
50867;BME280;36839;51.946;21.002;2023-02-17T13:43:18;99715.39;;;5.97;100.00
50867;BME280;36839;51.946;21.002;2023-02-17T13:46:01;99717.20;;;5.95;100.00
50867;BME280;36839;51.946;21.002;2023-02-17T13:48:31;99717.90;;;5.94;100.00
50867;BME280;36839;51.946;21.002;2023-02-17T13:51:06;99717.73;;;5.94;100.00
50867;BME280;36839;51.946;21.002;2023-02-17T13:53:38;99711.05;;;5.94;100.00
50867;BME280;36839;51.946;21.002;2023-02-17T13:56:09;99711.70;;;5.94;100.00
50867;BME280;36839;51.946;21.002;2023-02-17T13:58:39;99717.25;;;5.94;100.00
50867;BME280;36839;51.946;21.002;2023-02-17T14:01:14;99711.17;;;5.96;100.00
50867;BME280;36839;51.946;21.002;2023-02-17T14:03:49;99707.16;;;5.97;100.00
50867;BME280;36839;51.946;21.002;2023-02-17T14:08:52;99694.26;;;6.00;100.00
50867;BME280;36839;51.946;21.002;2023-02-17T14:11:23;99692.86;;;6.02;100.00
50867;BME280;36839;51.946;21.002;2023-02-17T14:13:54;99687.10;;;6.03;100.00
50867;BME280;36839;51.946;21.002;2023-02-17T14:16:34;99675.70;;;6.03;100.00
50867;BME280;36839;51.946;21.002;2023-02-17T14:21:39;99670.77;;;6.02;100.00
50867;BME280;36839;51.946;21.002;2023-02-17T14:24:23;99666.15;;;6.02;100.00
50867;BME280;36839;51.946;21.002;2023-02-17T14:26:56;99660.80;;;5.99;100.00
50867;BME280;36839;51.946;21.002;2023-02-17T14:29:24;99659.66;;;5.99;100.00